Terminal Aerodrome Forecast
Issued by NWS

Home | Current Version | Previous Version | Text Only | Print | Product List | Glossary On
Versions: 1 2 3 4 5 6 7 8 9 10 11 12 13 14 15 16 17 18 19 20 21 22 23 24 25 26 27 28 29 30 31 32 33 34 35 36 37 38
000
FTUS42 KRAH 180802 AAA
TAFRWI
TAF AMD
KRWI 180802Z 1808/1906 00000KT 6SM BR SKC
      TEMPO 1808/1812 5SM BR
     FM181300 21010KT P6SM SCT150
     FM182100 21011G19KT P6SM BKN140
     FM182300 20009G17KT P6SM BKN140
     FM190000 19009KT P6SM SCT140 WS020/21040KT=

USA.gov is the U.S. government's official web portal to all federal, state and local government web resources and services.